Black Star — 9HA2911 — position and weather

sailwx.info

Track history (hours):
 
Tides and Currents Weather Stations Pressure Air Temp Water Temp Dewpoint Dewpoint Depression Visibility Wind Speed Wind Dir Waves Ship Positions

Black Star

Last reported at 2017-Apr-29 03:21 UTC. Time now 2017-Apr-29 03:38 UTC.
Position N 36°10' W 005°06'.

Length 128 m; draft 6.5 m.

Type: Ship (hazmat cat B). MMSI: 256714000.

Date/timePositionNaut miles runAvg speedWind from/ knotsBaromVisibWave heightAir tempDewpointWater temp
2017-Apr-29 03:21N 36°10' W 005°06'1 1.9
2017-Apr-29 02:51N 36°09' W 005°07'1 1.7
2017-Apr-29 02:29N 36°09' W 005°08'1 1.9
2017-Apr-29 01:59N 36°09' W 005°09'1 2.4
2017-Apr-29 01:30N 36°09' W 005°10'2 3.1
2017-Apr-29 01:00N 36°09' W 005°12'2 3.1
2017-Apr-29 00:31N 36°08' W 005°14'2 4.1
2017-Apr-28 23:59N 36°09' W 005°11'2 5.0
2017-Apr-28 23:30N 36°09' W 005°08'2 3.2
2017-Apr-28 22:57N 36°08' W 005°10'2 4.1
2017-Apr-28 22:28N 36°07' W 005°12'2 4.1
2017-Apr-28 21:59N 36°06' W 005°15'2 5.0
2017-Apr-28 21:30N 36°06' W 005°18'2 4.2
2017-Apr-28 21:00N 36°05' W 005°20'2 4.3
2017-Apr-28 20:30N 36°06' W 005°17'1 1.7
2017-Apr-28 20:01N 36°06' W 005°18'1 1.3
2017-Apr-28 19:30N 36°05' W 005°18'2 3.6
2017-Apr-28 19:01N 36°04' W 005°20'3 6.2
2017-Apr-28 18:30N 36°03' W 005°23'5 9.5
2017-Apr-28 18:00N 35°59' W 005°26'611.3
2017-Apr-28 17:30N 35°57' W 005°32'713.2
2017-Apr-28 17:01N 35°54' W 005°40'714.7
2017-Apr-28 16:30N 35°54' W 005°49'814.0
2017-Apr-28 15:56N 35°54' W 005°59'20811.3
2017-Apr-27 21:28N 37°28' W 009°51'712.7
2017-Apr-27 20:55N 37°35' W 009°53'512.7
2017-Apr-27 20:31N 37°40' W 009°54'712.9
2017-Apr-27 20:00N 37°46' W 009°56'612.6
2017-Apr-27 19:31N 37°52' W 009°58'612.5
2017-Apr-27 19:00N 37°58' W 010°00'612.7
2017-Apr-27 18:31N 38°04' W 010°03'612.9
2017-Apr-27 18:01N 38°11' W 010°05'812.7
2017-Apr-27 17:24N 38°18' W 010°07'612.8
2017-Apr-27 16:55N 38°24' W 010°08'512.6
2017-Apr-27 16:30N 38°29' W 010°10'712.4
2017-Apr-27 15:55N 38°37' W 010°11'512.7
2017-Apr-27 15:29N 38°42' W 010°13'712.7
2017-Apr-27 14:58N 38°48' W 010°13'1212.3
2017-Apr-27 14:01N 39°00' W 010°12'612.0
2017-Apr-27 13:31N 39°06' W 010°12'611.7
2017-Apr-27 13:00N 39°12' W 010°12'  
2017-Apr-25 04:49N 49°48' W 003°26'411.6
2017-Apr-25 04:30N 49°50' W 003°21'611.7
2017-Apr-25 04:00N 49°53' W 003°13'712.0
2017-Apr-25 03:27N 49°56' W 003°04'612.7
2017-Apr-25 03:00N 49°59' W 002°56'9514.2
2017-Apr-24 20:17N 50°23' W 000°33'310.6
2017-Apr-24 20:00N 50°24' W 000°28'510.4
2017-Apr-24 19:29N 50°25' W 000°20'510.4
2017-Apr-24 19:00N 50°27' W 000°12'510.5
2017-Apr-24 18:30N 50°28' W 000°05'510.7
2017-Apr-24 18:00N 50°30' E 000°04'611.3
2017-Apr-24 17:30N 50°31' E 000°12'612.0
2017-Apr-24 17:00N 50°33' E 000°21'712.9
2017-Apr-24 16:30N 50°35' E 000°31'713.4
2017-Apr-24 16:00N 50°38' E 000°40'713.9
2017-Apr-24 15:30N 50°42' E 000°50'814.1
2017-Apr-24 14:58N 50°46' E 000°59'613.8
2017-Apr-24 14:30N 50°50' E 001°08'1313.3
2017-Apr-24 13:30N 50°59' E 001°23'612.1
2017-Apr-24 13:00N 51°03' E 001°30'511.0
2017-Apr-24 12:30N 51°07' E 001°35'510.3
2017-Apr-24 12:00N 51°11' E 001°41'510.6
2017-Apr-24 11:30N 51°15' E 001°47'510.5
2017-Apr-24 11:00N 51°19' E 001°51'511.1
2017-Apr-24 10:30N 51°24' E 001°55'611.7
2017-Apr-24 10:00N 51°29' E 002°01'612.2
2017-Apr-24 09:30N 51°33' E 002°08'712.5
2017-Apr-24 08:59N 51°38' E 002°15'613.2
2017-Apr-24 08:30N 51°42' E 002°22'4612.7
2017-Apr-24 04:52N 52°03' E 003°29'512.8
2017-Apr-24 04:30N 52°03' E 003°37'612.3
2017-Apr-24 04:00N 52°03' E 003°47'510.0
2017-Apr-24 03:30N 52°02' E 003°55'612.0
2017-Apr-24 03:00N 51°59' E 004°03'713.1
2017-Apr-24 02:30N 51°56' E 004°12'4 9.0
2017-Apr-24 02:00N 51°53' E 004°18'0 0.3
2017-Apr-24 00:35N 51°53' E 004°17'0 0.0
2017-Apr-24 00:14N 51°53' E 004°17'0 0.0
2017-Apr-23 17:11N 51°53' E 004°17'0 0.0
2017-Apr-23 17:00N 51°53' E 004°17'0 0.0
2017-Apr-23 16:05N 51°53' E 004°17'0 0.0
2017-Apr-23 15:59N 51°53' E 004°17'0 0.0
2017-Apr-23 15:29N 51°53' E 004°17'0 0.0
2017-Apr-23 13:26N 51°53' E 004°17'0 0.0
2017-Apr-23 12:53N 51°53' E 004°17'0 0.0
2017-Apr-23 12:29N 51°53' E 004°17'0 0.0
2017-Apr-23 11:59N 51°53' E 004°17'0 0.0
2017-Apr-23 11:26N 51°53' E 004°17'0 0.0
2017-Apr-23 10:53N 51°53' E 004°17'0 0.0
2017-Apr-23 10:29N 51°53' E 004°17'0 0.0
2017-Apr-23 09:56N 51°53' E 004°17'0 0.0
2017-Apr-23 09:20N 51°53' E 004°17'0 0.0
2017-Apr-23 08:56N 51°53' E 004°17'0 0.0
2017-Apr-23 08:23N 51°53' E 004°17'0 0.0
2017-Apr-23 08:00N 51°53' E 004°17'0 0.0
2017-Apr-23 07:23N 51°53' E 004°17'0 0.0
2017-Apr-23 06:56N 51°53' E 004°17'0 0.0
2017-Apr-23 06:26N 51°53' E 004°17'0 0.0
2017-Apr-23 05:59N 51°53' E 004°17'0 0.0
2017-Apr-23 05:29N 51°53' E 004°17'0 0.0
2017-Apr-23 04:56N 51°53' E 004°17'0 0.0
2017-Apr-23 04:30N 51°53' E 004°17'0 0.0
2017-Apr-23 04:00N 51°53' E 004°17'0 0.0
2017-Apr-23 03:23N 51°53' E 004°17'0 0.0
2017-Apr-23 02:59N 51°53' E 004°17'0 0.0
2017-Apr-23 02:29N 51°53' E 004°17'0 0.0
2017-Apr-23 01:57N 51°53' E 004°17'0 0.0
2017-Apr-23 01:30N 51°53' E 004°17'0 0.0
2017-Apr-23 00:56N 51°53' E 004°17'0 0.0
2017-Apr-23 00:23N 51°53' E 004°17'0 0.0
2017-Apr-22 23:59N 51°53' E 004°17'0 0.0
2017-Apr-22 23:23N 51°53' E 004°17'0 0.0
2017-Apr-22 22:53N 51°53' E 004°17'0 0.0
2017-Apr-22 22:26N 51°53' E 004°17'0 0.0
2017-Apr-22 21:59N 51°53' E 004°17'0 0.0
2017-Apr-22 21:29N 51°53' E 004°17'0 0.0
2017-Apr-22 20:56N 51°53' E 004°17'0 0.0
2017-Apr-22 20:26N 51°53' E 004°17'0 0.0
2017-Apr-22 20:00N 51°53' E 004°17'0 0.0
2017-Apr-22 19:26N 51°53' E 004°17'0 0.0
2017-Apr-22 18:59N 51°53' E 004°17'0 0.0
2017-Apr-22 18:26N 51°53' E 004°17'0 0.0
2017-Apr-22 17:59N 51°53' E 004°17'0 0.0
2017-Apr-22 17:26N 51°53' E 004°17'0 0.0
2017-Apr-22 16:59N 51°53' E 004°17'0 0.0
2017-Apr-22 16:26N 51°53' E 004°17'0 0.0
2017-Apr-22 15:56N 51°53' E 004°17'0 0.0
2017-Apr-22 15:26N 51°53' E 004°17'0 0.0
2017-Apr-22 14:56N 51°53' E 004°17'0 0.0
2017-Apr-22 14:29N 51°53' E 004°17'0 0.0
2017-Apr-22 13:29N 51°53' E 004°17'0 0.0
2017-Apr-22 12:59N 51°53' E 004°17'0 0.0
2017-Apr-22 12:29N 51°53' E 004°17'0 0.0
2017-Apr-22 11:59N 51°53' E 004°17'0 0.0
2017-Apr-22 11:26N 51°53' E 004°17'0 0.0
2017-Apr-22 10:53N 51°53' E 004°17'0 0.0
2017-Apr-22 10:29N 51°53' E 004°17'0 0.0
2017-Apr-22 10:00N 51°53' E 004°17'0 0.0
2017-Apr-22 09:30N 51°53' E 004°17'0 0.0
2017-Apr-22 08:59N 51°53' E 004°17'0 0.0
2017-Apr-22 08:29N 51°53' E 004°17'0 0.0
2017-Apr-22 07:56N 51°53' E 004°17'0 0.0
2017-Apr-22 07:29N 51°53' E 004°17'0 0.0
2017-Apr-22 07:00N 51°53' E 004°17'0 0.0
2017-Apr-22 06:29N 51°53' E 004°17'0 0.0
2017-Apr-22 05:59N 51°53' E 004°17'0 0.0
2017-Apr-22 05:23N 51°53' E 004°17'0 0.0
2017-Apr-22 04:59N 51°53' E 004°17'0 0.0
2017-Apr-22 04:26N 51°53' E 004°17'0 0.0
2017-Apr-22 03:56N 51°53' E 004°17'0 0.0
2017-Apr-22 02:39N 51°53' E 004°17'0 0.0
2017-Apr-22 01:03N 51°53' E 004°17'0 0.0
2017-Apr-22 00:45N 51°53' E 004°17'0 0.0
2017-Apr-22 00:27N 51°53' E 004°17'0 0.0
2017-Apr-21 23:57N 51°53' E 004°17'0 0.0
2017-Apr-21 23:27N 51°53' E 004°17'0 0.0
2017-Apr-21 22:57N 51°53' E 004°17'0 0.0
2017-Apr-21 20:45N 51°53' E 004°17'0 0.0
2017-Apr-21 06:16N 51°53' E 004°17'0 0.0
2017-Apr-21 03:51N 51°53' E 004°17'0 0.0
2017-Apr-20 22:39N 51°53' E 004°17'0 0.0
2017-Apr-20 22:27N 51°53' E 004°17'0 0.0
2017-Apr-20 21:51N 51°53' E 004°17'0 0.0
2017-Apr-20 21:27N 51°53' E 004°17'0 0.0
2017-Apr-20 20:28N 51°53' E 004°17'0 0.0
2017-Apr-20 19:03N 51°53' E 004°17'0 0.1
2017-Apr-20 14:33N 51°53' E 004°17'0 0.9
2017-Apr-20 14:27N 51°53' E 004°17'0 0.2
2017-Apr-20 13:30N 51°53' E 004°17'0 0.0
2017-Apr-20 12:33N 51°53' E 004°17'0 0.0
2017-Apr-20 12:27N 51°53' E 004°17'0 0.0
2017-Apr-20 12:00N 51°53' E 004°17'0 0.0
2017-Apr-20 11:13N 51°53' E 004°17'0 0.0
2017-Apr-20 10:57N 51°53' E 004°17'0 0.0
2017-Apr-20 10:27N 51°53' E 004°17'0 0.0
2017-Apr-20 10:00N 51°53' E 004°17'0 0.0
2017-Apr-20 09:18N 51°53' E 004°17'0 0.0
2017-Apr-20 09:00N 51°53' E 004°17'0 0.0
2017-Apr-20 08:27N 51°53' E 004°17'0 0.0
2017-Apr-20 08:00N 51°53' E 004°17'0 0.0
2017-Apr-20 07:18N 51°53' E 004°17'0 0.0
2017-Apr-20 06:48N 51°53' E 004°17'0 0.0
2017-Apr-20 06:30N 51°53' E 004°17'0 0.0
2017-Apr-20 06:00N 51°53' E 004°17'0 0.0
2017-Apr-20 05:30N 51°53' E 004°17'0 0.0
2017-Apr-20 04:57N 51°53' E 004°17'0 0.0
2017-Apr-20 04:30N 51°53' E 004°17'0 0.0
2017-Apr-20 03:57N 51°53' E 004°17'0 0.0
2017-Apr-20 03:27N 51°53' E 004°17'0 0.0
2017-Apr-20 03:00N 51°53' E 004°17'0 0.0
2017-Apr-20 02:27N 51°53' E 004°17'0 0.0
2017-Apr-20 01:57N 51°53' E 004°17'0 0.0
2017-Apr-20 01:27N 51°53' E 004°17'0 0.0
2017-Apr-20 00:24N 51°53' E 004°17'0 0.0
2017-Apr-19 23:36N 51°53' E 004°17'0 0.0
2017-Apr-19 23:30N 51°53' E 004°17'0 0.0
2017-Apr-19 22:54N 51°53' E 004°17'0 0.0
2017-Apr-19 22:27N 51°53' E 004°17'0 0.0
2017-Apr-19 22:00N 51°53' E 004°17'0 0.0
2017-Apr-19 21:30N 51°53' E 004°17'0 0.0
2017-Apr-19 20:54N 51°53' E 004°17'0 0.0
2017-Apr-19 20:27N 51°53' E 004°17'0 0.0
2017-Apr-19 20:00N 51°53' E 004°17'0 0.0
2017-Apr-19 19:24N 51°53' E 004°17'0 0.0
2017-Apr-19 18:57N 51°53' E 004°17'0 0.0
2017-Apr-19 18:30N 51°53' E 004°17'0 0.0
2017-Apr-19 17:57N 51°53' E 004°17'0 0.0
2017-Apr-19 17:27N 51°53' E 004°17'0 0.0
2017-Apr-19 17:00N 51°53' E 004°17'0 0.0
2017-Apr-19 16:09N 51°53' E 004°17'0 0.0
2017-Apr-19 15:58N 51°53' E 004°17'0 0.0
2017-Apr-19 14:39N 51°53' E 004°17'0 0.0
2017-Apr-19 14:24N 51°53' E 004°17'0 0.0
2017-Apr-19 13:18N 51°53' E 004°17'0 0.0
2017-Apr-19 12:57N 51°53' E 004°17'0 0.0
2017-Apr-19 12:27N 51°53' E 004°17'0 0.0
2017-Apr-19 11:51N 51°53' E 004°17'0 0.0
2017-Apr-19 11:27N 51°53' E 004°17'0 0.0
2017-Apr-19 10:31N 51°53' E 004°17'0 0.0
2017-Apr-19 10:30N 51°53' E 004°17'0 0.0
2017-Apr-19 09:54N 51°53' E 004°17'0 0.0
2017-Apr-19 09:30N 51°53' E 004°17'0 0.0
2017-Apr-19 09:00N 51°53' E 004°17'0 0.2
2017-Apr-19 08:30N 51°53' E 004°17'1 1.9
2017-Apr-19 08:00N 51°54' E 004°17'612.5
2017-Apr-19 07:30N 51°58' E 004°09'713.7
2017-Apr-19 06:58N 52°00' E 003°57'613.6
2017-Apr-19 06:30N 52°02' E 003°47'  
Track history (hours):
 
Tides and Currents Weather Stations Pressure Air Temp Water Temp Dewpoint Dewpoint Depression Visibility Wind Speed Wind Dir Waves Ship Positions

Black Star

Last reported at 2017-Apr-29 03:21 UTC. Time now 2017-Apr-29 03:38 UTC.
Position N 36°10' W 005°06'.

Length 128 m; draft 6.5 m.

Type: Ship (hazmat cat B). MMSI: 256714000.

Date/timePositionNaut miles runAvg speedWind from/ knotsBaromVisibWave heightAir tempDewpointWater temp
2017-Apr-29 03:21N 36°10' W 005°06'1 1.9
2017-Apr-29 02:51N 36°09' W 005°07'1 1.7
2017-Apr-29 02:29N 36°09' W 005°08'1 1.9
2017-Apr-29 01:59N 36°09' W 005°09'1 2.4
2017-Apr-29 01:30N 36°09' W 005°10'2 3.1
2017-Apr-29 01:00N 36°09' W 005°12'2 3.1
2017-Apr-29 00:31N 36°08' W 005°14'2 4.1
2017-Apr-28 23:59N 36°09' W 005°11'2 5.0
2017-Apr-28 23:30N 36°09' W 005°08'2 3.2
2017-Apr-28 22:57N 36°08' W 005°10'2 4.1
2017-Apr-28 22:28N 36°07' W 005°12'2 4.1
2017-Apr-28 21:59N 36°06' W 005°15'2 5.0
2017-Apr-28 21:30N 36°06' W 005°18'2 4.2
2017-Apr-28 21:00N 36°05' W 005°20'2 4.3
2017-Apr-28 20:30N 36°06' W 005°17'1 1.7
2017-Apr-28 20:01N 36°06' W 005°18'1 1.3
2017-Apr-28 19:30N 36°05' W 005°18'2 3.6
2017-Apr-28 19:01N 36°04' W 005°20'3 6.2
2017-Apr-28 18:30N 36°03' W 005°23'5 9.5
2017-Apr-28 18:00N 35°59' W 005°26'611.3
2017-Apr-28 17:30N 35°57' W 005°32'713.2
2017-Apr-28 17:01N 35°54' W 005°40'714.7
2017-Apr-28 16:30N 35°54' W 005°49'814.0
2017-Apr-28 15:56N 35°54' W 005°59'20811.3
2017-Apr-27 21:28N 37°28' W 009°51'712.7
2017-Apr-27 20:55N 37°35' W 009°53'512.7
2017-Apr-27 20:31N 37°40' W 009°54'712.9
2017-Apr-27 20:00N 37°46' W 009°56'612.6
2017-Apr-27 19:31N 37°52' W 009°58'612.5
2017-Apr-27 19:00N 37°58' W 010°00'612.7
2017-Apr-27 18:31N 38°04' W 010°03'612.9
2017-Apr-27 18:01N 38°11' W 010°05'812.7
2017-Apr-27 17:24N 38°18' W 010°07'612.8
2017-Apr-27 16:55N 38°24' W 010°08'512.6
2017-Apr-27 16:30N 38°29' W 010°10'712.4
2017-Apr-27 15:55N 38°37' W 010°11'512.7
2017-Apr-27 15:29N 38°42' W 010°13'712.7
2017-Apr-27 14:58N 38°48' W 010°13'1212.3
2017-Apr-27 14:01N 39°00' W 010°12'612.0
2017-Apr-27 13:31N 39°06' W 010°12'611.7
2017-Apr-27 13:00N 39°12' W 010°12'  
2017-Apr-25 04:49N 49°48' W 003°26'411.6
2017-Apr-25 04:30N 49°50' W 003°21'611.7
2017-Apr-25 04:00N 49°53' W 003°13'712.0
2017-Apr-25 03:27N 49°56' W 003°04'612.7
2017-Apr-25 03:00N 49°59' W 002°56'9514.2
2017-Apr-24 20:17N 50°23' W 000°33'310.6
2017-Apr-24 20:00N 50°24' W 000°28'510.4
2017-Apr-24 19:29N 50°25' W 000°20'510.4
2017-Apr-24 19:00N 50°27' W 000°12'510.5
2017-Apr-24 18:30N 50°28' W 000°05'510.7
2017-Apr-24 18:00N 50°30' E 000°04'611.3
2017-Apr-24 17:30N 50°31' E 000°12'612.0
2017-Apr-24 17:00N 50°33' E 000°21'712.9
2017-Apr-24 16:30N 50°35' E 000°31'713.4
2017-Apr-24 16:00N 50°38' E 000°40'713.9
2017-Apr-24 15:30N 50°42' E 000°50'814.1
2017-Apr-24 14:58N 50°46' E 000°59'613.8
2017-Apr-24 14:30N 50°50' E 001°08'1313.3
2017-Apr-24 13:30N 50°59' E 001°23'612.1
2017-Apr-24 13:00N 51°03' E 001°30'511.0
2017-Apr-24 12:30N 51°07' E 001°35'510.3
2017-Apr-24 12:00N 51°11' E 001°41'510.6
2017-Apr-24 11:30N 51°15' E 001°47'510.5
2017-Apr-24 11:00N 51°19' E 001°51'511.1
2017-Apr-24 10:30N 51°24' E 001°55'611.7
2017-Apr-24 10:00N 51°29' E 002°01'612.2
2017-Apr-24 09:30N 51°33' E 002°08'712.5
2017-Apr-24 08:59N 51°38' E 002°15'613.2
2017-Apr-24 08:30N 51°42' E 002°22'4612.7
2017-Apr-24 04:52N 52°03' E 003°29'512.8
2017-Apr-24 04:30N 52°03' E 003°37'612.3
2017-Apr-24 04:00N 52°03' E 003°47'510.0
2017-Apr-24 03:30N 52°02' E 003°55'612.0
2017-Apr-24 03:00N 51°59' E 004°03'713.1
2017-Apr-24 02:30N 51°56' E 004°12'4 9.0
2017-Apr-24 02:00N 51°53' E 004°18'0 0.3
2017-Apr-24 00:35N 51°53' E 004°17'0 0.0
2017-Apr-24 00:14N 51°53' E 004°17'0 0.0
2017-Apr-23 17:11N 51°53' E 004°17'0 0.0
2017-Apr-23 17:00N 51°53' E 004°17'0 0.0
2017-Apr-23 16:05N 51°53' E 004°17'0 0.0
2017-Apr-23 15:59N 51°53' E 004°17'0 0.0
2017-Apr-23 15:29N 51°53' E 004°17'0 0.0
2017-Apr-23 13:26N 51°53' E 004°17'0 0.0
2017-Apr-23 12:53N 51°53' E 004°17'0 0.0
2017-Apr-23 12:29N 51°53' E 004°17'0 0.0
2017-Apr-23 11:59N 51°53' E 004°17'0 0.0
2017-Apr-23 11:26N 51°53' E 004°17'0 0.0
2017-Apr-23 10:53N 51°53' E 004°17'0 0.0
2017-Apr-23 10:29N 51°53' E 004°17'0 0.0
2017-Apr-23 09:56N 51°53' E 004°17'0 0.0
2017-Apr-23 09:20N 51°53' E 004°17'0 0.0
2017-Apr-23 08:56N 51°53' E 004°17'0 0.0
2017-Apr-23 08:23N 51°53' E 004°17'0 0.0
2017-Apr-23 08:00N 51°53' E 004°17'0 0.0
2017-Apr-23 07:23N 51°53' E 004°17'0 0.0
2017-Apr-23 06:56N 51°53' E 004°17'0 0.0
2017-Apr-23 06:26N 51°53' E 004°17'0 0.0
2017-Apr-23 05:59N 51°53' E 004°17'0 0.0
2017-Apr-23 05:29N 51°53' E 004°17'0 0.0
2017-Apr-23 04:56N 51°53' E 004°17'0 0.0
2017-Apr-23 04:30N 51°53' E 004°17'0 0.0
2017-Apr-23 04:00N 51°53' E 004°17'0 0.0
2017-Apr-23 03:23N 51°53' E 004°17'0 0.0
2017-Apr-23 02:59N 51°53' E 004°17'0 0.0
2017-Apr-23 02:29N 51°53' E 004°17'0 0.0
2017-Apr-23 01:57N 51°53' E 004°17'0 0.0
2017-Apr-23 01:30N 51°53' E 004°17'0 0.0
2017-Apr-23 00:56N 51°53' E 004°17'0 0.0
2017-Apr-23 00:23N 51°53' E 004°17'0 0.0
2017-Apr-22 23:59N 51°53' E 004°17'0 0.0
2017-Apr-22 23:23N 51°53' E 004°17'0 0.0
2017-Apr-22 22:53N 51°53' E 004°17'0 0.0
2017-Apr-22 22:26N 51°53' E 004°17'0 0.0
2017-Apr-22 21:59N 51°53' E 004°17'0 0.0
2017-Apr-22 21:29N 51°53' E 004°17'0 0.0
2017-Apr-22 20:56N 51°53' E 004°17'0 0.0
2017-Apr-22 20:26N 51°53' E 004°17'0 0.0
2017-Apr-22 20:00N 51°53' E 004°17'0 0.0
2017-Apr-22 19:26N 51°53' E 004°17'0 0.0
2017-Apr-22 18:59N 51°53' E 004°17'0 0.0
2017-Apr-22 18:26N 51°53' E 004°17'0 0.0
2017-Apr-22 17:59N 51°53' E 004°17'0 0.0
2017-Apr-22 17:26N 51°53' E 004°17'0 0.0
2017-Apr-22 16:59N 51°53' E 004°17'0 0.0
2017-Apr-22 16:26N 51°53' E 004°17'0 0.0
2017-Apr-22 15:56N 51°53' E 004°17'0 0.0
2017-Apr-22 15:26N 51°53' E 004°17'0 0.0
2017-Apr-22 14:56N 51°53' E 004°17'0 0.0
2017-Apr-22 14:29N 51°53' E 004°17'0 0.0
2017-Apr-22 13:29N 51°53' E 004°17'0 0.0
2017-Apr-22 12:59N 51°53' E 004°17'0 0.0
2017-Apr-22 12:29N 51°53' E 004°17'0 0.0
2017-Apr-22 11:59N 51°53' E 004°17'0 0.0
2017-Apr-22 11:26N 51°53' E 004°17'0 0.0
2017-Apr-22 10:53N 51°53' E 004°17'0 0.0
2017-Apr-22 10:29N 51°53' E 004°17'0 0.0
2017-Apr-22 10:00N 51°53' E 004°17'0 0.0
2017-Apr-22 09:30N 51°53' E 004°17'0 0.0
2017-Apr-22 08:59N 51°53' E 004°17'0 0.0
2017-Apr-22 08:29N 51°53' E 004°17'0 0.0
2017-Apr-22 07:56N 51°53' E 004°17'0 0.0
2017-Apr-22 07:29N 51°53' E 004°17'0 0.0
2017-Apr-22 07:00N 51°53' E 004°17'0 0.0
2017-Apr-22 06:29N 51°53' E 004°17'0 0.0
2017-Apr-22 05:59N 51°53' E 004°17'0 0.0
2017-Apr-22 05:23N 51°53' E 004°17'0 0.0
2017-Apr-22 04:59N 51°53' E 004°17'0 0.0
2017-Apr-22 04:26N 51°53' E 004°17'0 0.0
2017-Apr-22 03:56N 51°53' E 004°17'0 0.0
2017-Apr-22 02:39N 51°53' E 004°17'0 0.0
2017-Apr-22 01:03N 51°53' E 004°17'0 0.0
2017-Apr-22 00:45N 51°53' E 004°17'0 0.0
2017-Apr-22 00:27N 51°53' E 004°17'0 0.0
2017-Apr-21 23:57N 51°53' E 004°17'0 0.0
2017-Apr-21 23:27N 51°53' E 004°17'0 0.0
2017-Apr-21 22:57N 51°53' E 004°17'0 0.0
2017-Apr-21 20:45N 51°53' E 004°17'0 0.0
2017-Apr-21 06:16N 51°53' E 004°17'0 0.0
2017-Apr-21 03:51N 51°53' E 004°17'0 0.0
2017-Apr-20 22:39N 51°53' E 004°17'0 0.0
2017-Apr-20 22:27N 51°53' E 004°17'0 0.0
2017-Apr-20 21:51N 51°53' E 004°17'0 0.0
2017-Apr-20 21:27N 51°53' E 004°17'0 0.0
2017-Apr-20 20:28N 51°53' E 004°17'0 0.0
2017-Apr-20 19:03N 51°53' E 004°17'0 0.1
2017-Apr-20 14:33N 51°53' E 004°17'0 0.9
2017-Apr-20 14:27N 51°53' E 004°17'0 0.2
2017-Apr-20 13:30N 51°53' E 004°17'0 0.0
2017-Apr-20 12:33N 51°53' E 004°17'0 0.0
2017-Apr-20 12:27N 51°53' E 004°17'0 0.0
2017-Apr-20 12:00N 51°53' E 004°17'0 0.0
2017-Apr-20 11:13N 51°53' E 004°17'0 0.0
2017-Apr-20 10:57N 51°53' E 004°17'0 0.0
2017-Apr-20 10:27N 51°53' E 004°17'0 0.0
2017-Apr-20 10:00N 51°53' E 004°17'0 0.0
2017-Apr-20 09:18N 51°53' E 004°17'0 0.0
2017-Apr-20 09:00N 51°53' E 004°17'0 0.0
2017-Apr-20 08:27N 51°53' E 004°17'0 0.0
2017-Apr-20 08:00N 51°53' E 004°17'0 0.0
2017-Apr-20 07:18N 51°53' E 004°17'0 0.0
2017-Apr-20 06:48N 51°53' E 004°17'0 0.0
2017-Apr-20 06:30N 51°53' E 004°17'0 0.0
2017-Apr-20 06:00N 51°53' E 004°17'0 0.0
2017-Apr-20 05:30N 51°53' E 004°17'0 0.0
2017-Apr-20 04:57N 51°53' E 004°17'0 0.0
2017-Apr-20 04:30N 51°53' E 004°17'0 0.0
2017-Apr-20 03:57N 51°53' E 004°17'0 0.0
2017-Apr-20 03:27N 51°53' E 004°17'0 0.0
2017-Apr-20 03:00N 51°53' E 004°17'0 0.0
2017-Apr-20 02:27N 51°53' E 004°17'0 0.0
2017-Apr-20 01:57N 51°53' E 004°17'0 0.0
2017-Apr-20 01:27N 51°53' E 004°17'0 0.0
2017-Apr-20 00:24N 51°53' E 004°17'0 0.0
2017-Apr-19 23:36N 51°53' E 004°17'0 0.0
2017-Apr-19 23:30N 51°53' E 004°17'0 0.0
2017-Apr-19 22:54N 51°53' E 004°17'0 0.0
2017-Apr-19 22:27N 51°53' E 004°17'0 0.0
2017-Apr-19 22:00N 51°53' E 004°17'0 0.0
2017-Apr-19 21:30N 51°53' E 004°17'0 0.0
2017-Apr-19 20:54N 51°53' E 004°17'0 0.0
2017-Apr-19 20:27N 51°53' E 004°17'0 0.0
2017-Apr-19 20:00N 51°53' E 004°17'0 0.0
2017-Apr-19 19:24N 51°53' E 004°17'0 0.0
2017-Apr-19 18:57N 51°53' E 004°17'0 0.0
2017-Apr-19 18:30N 51°53' E 004°17'0 0.0
2017-Apr-19 17:57N 51°53' E 004°17'0 0.0
2017-Apr-19 17:27N 51°53' E 004°17'0 0.0
2017-Apr-19 17:00N 51°53' E 004°17'0 0.0
2017-Apr-19 16:09N 51°53' E 004°17'0 0.0
2017-Apr-19 15:58N 51°53' E 004°17'0 0.0
2017-Apr-19 14:39N 51°53' E 004°17'0 0.0
2017-Apr-19 14:24N 51°53' E 004°17'0 0.0
2017-Apr-19 13:18N 51°53' E 004°17'0 0.0
2017-Apr-19 12:57N 51°53' E 004°17'0 0.0
2017-Apr-19 12:27N 51°53' E 004°17'0 0.0
2017-Apr-19 11:51N 51°53' E 004°17'0 0.0
2017-Apr-19 11:27N 51°53' E 004°17'0 0.0
2017-Apr-19 10:31N 51°53' E 004°17'0 0.0
2017-Apr-19 10:30N 51°53' E 004°17'0 0.0
2017-Apr-19 09:54N 51°53' E 004°17'0 0.0
2017-Apr-19 09:30N 51°53' E 004°17'0 0.0
2017-Apr-19 09:00N 51°53' E 004°17'0 0.2
2017-Apr-19 08:30N 51°53' E 004°17'1 1.9
2017-Apr-19 08:00N 51°54' E 004°17'612.5
2017-Apr-19 07:30N 51°58' E 004°09'713.7
2017-Apr-19 06:58N 52°00' E 003°57'613.6
2017-Apr-19 06:30N 52°02' E 003°47'  

Dump ship's entire track history